createdAt,value
2023-03-06T00:00:33.303Z,3.35
2023-03-06T00:03:15.344Z,2.53
2023-03-06T00:05:42.868Z,1.42
2023-03-06T00:08:10.575Z,0.93
2023-03-06T00:10:38.372Z,1.60
2023-03-06T00:13:07.145Z,0.90
2023-03-06T00:15:34.448Z,0.60
2023-03-06T00:18:03.670Z,2.10
2023-03-06T00:20:30.944Z,1.75
2023-03-06T00:22:59.023Z,0.68
2023-03-06T00:25:26.716Z,1.35
2023-03-06T00:27:54.336Z,1.02
2023-03-06T00:30:23.235Z,1.08
2023-03-06T00:32:51.242Z,0.93
2023-03-06T00:35:18.669Z,1.77
2023-03-06T00:37:46.305Z,1.90
2023-03-06T00:40:15.122Z,0.98
2023-03-06T00:42:43.205Z,2.10
2023-03-06T00:45:10.872Z,1.15
2023-03-06T00:47:38.517Z,1.83
2023-03-06T00:50:06.164Z,1.38
2023-03-06T00:52:33.891Z,1.20
2023-03-06T00:55:01.153Z,1.50
2023-03-06T00:57:28.755Z,1.50
2023-03-06T00:59:56.125Z,1.02
2023-03-06T01:02:23.790Z,1.10
2023-03-06T01:04:51.141Z,1.08
2023-03-06T01:07:18.718Z,1.58
2023-03-06T01:09:46.004Z,0.85
2023-03-06T01:12:13.617Z,1.20
2023-03-06T01:14:40.867Z,1.05
2023-03-06T01:17:08.559Z,0.98
2023-03-06T01:19:35.889Z,0.57
2023-03-06T01:22:03.691Z,1.17
2023-03-06T01:24:30.990Z,1.13
2023-03-06T01:26:58.592Z,0.88
2023-03-06T01:29:26.468Z,1.05
2023-03-06T01:31:54.465Z,1.13
2023-03-06T01:34:21.798Z,1.00
2023-03-06T01:36:49.532Z,0.88
2023-03-06T01:39:16.817Z,0.90
2023-03-06T01:41:44.405Z,2.10
2023-03-06T01:44:13.809Z,1.83
2023-03-06T01:46:42.337Z,1.50
2023-03-06T01:49:15.846Z,1.40
2023-03-06T01:51:49.424Z,2.92
2023-03-06T01:54:39.749Z,0.63
2023-03-06T01:57:12.448Z,0.88
2023-03-06T01:59:41.023Z,1.10
2023-03-06T02:02:11.493Z,1.48
2023-03-06T02:04:40.045Z,1.92
2023-03-06T02:07:08.172Z,1.30
2023-03-06T02:09:36.579Z,1.23
2023-03-06T02:12:06.901Z,1.40
2023-03-06T02:14:34.151Z,1.83
2023-03-06T02:17:01.824Z,1.42
2023-03-06T02:19:29.106Z,1.77
2023-03-06T02:21:56.716Z,1.55
2023-03-06T02:24:35.181Z,2.15
2023-03-06T02:27:04.346Z,1.50
2023-03-06T02:29:31.971Z,0.93
2023-03-06T02:32:00.791Z,1.33
2023-03-06T02:34:28.096Z,1.40
2023-03-06T02:37:08.727Z,2.20
2023-03-06T02:39:38.543Z,1.45
2023-03-06T02:42:06.240Z,2.47
2023-03-06T02:44:34.920Z,0.70
2023-03-06T02:47:02.529Z,3.33
2023-03-06T02:49:29.831Z,2.15
2023-03-06T02:51:57.382Z,1.83
2023-03-06T02:54:24.694Z,2.58
2023-03-06T02:56:52.251Z,1.08
2023-03-06T02:59:19.623Z,1.98
2023-03-06T03:01:47.717Z,0.52
2023-03-06T03:04:15.114Z,1.63
2023-03-06T03:06:42.847Z,2.92
2023-03-06T03:09:10.101Z,4.25
2023-03-06T03:11:37.861Z,2.58
2023-03-06T03:14:05.136Z,1.13
2023-03-06T03:16:32.680Z,2.08
2023-03-06T03:18:59.982Z,1.83
2023-03-06T03:21:27.700Z,1.25
2023-03-06T03:23:55.008Z,1.40
2023-03-06T03:26:22.955Z,1.40
2023-03-06T03:28:50.289Z,0.80
2023-03-06T03:31:17.971Z,1.35
2023-03-06T03:33:45.300Z,0.80
2023-03-06T03:36:12.890Z,0.98
2023-03-06T03:38:40.273Z,1.35
2023-03-06T03:41:07.910Z,1.95
2023-03-06T03:43:35.344Z,1.50
2023-03-06T03:46:03.028Z,1.63
2023-03-06T03:48:30.485Z,1.58
2023-03-06T03:51:05.195Z,1.58
2023-03-06T03:53:32.460Z,1.17
2023-03-06T03:56:00.102Z,1.65
2023-03-06T03:58:27.539Z,1.23
2023-03-06T04:00:55.166Z,1.27
2023-03-06T04:03:22.485Z,2.05
2023-03-06T04:05:50.181Z,1.45
2023-03-06T04:08:17.436Z,0.57
2023-03-06T04:10:45.149Z,0.93
2023-03-06T04:13:12.487Z,2.10
2023-03-06T04:15:40.047Z,1.02
2023-03-06T04:18:07.318Z,0.77
2023-03-06T04:20:35.112Z,1.17
2023-03-06T04:23:02.461Z,1.63
2023-03-06T04:25:29.994Z,1.65
2023-03-06T04:27:57.271Z,1.15
2023-03-06T04:30:25.057Z,0.93
2023-03-06T04:32:52.504Z,1.65
2023-03-06T04:35:20.200Z,1.80
2023-03-06T04:37:47.969Z,1.10
2023-03-06T04:40:21.588Z,2.38
2023-03-06T04:42:49.256Z,2.35
2023-03-06T04:45:17.197Z,2.15
2023-03-06T04:47:44.649Z,1.17
2023-03-06T04:50:12.879Z,1.35
2023-03-06T04:52:40.552Z,1.33
2023-03-06T04:55:09.312Z,1.25
2023-03-06T04:57:40.515Z,1.65
2023-03-06T05:00:10.212Z,2.58
2023-03-06T05:02:37.582Z,1.80
2023-03-06T05:05:05.449Z,1.45
2023-03-06T05:07:32.766Z,2.22
2023-03-06T05:10:00.536Z,1.58
2023-03-06T05:12:27.908Z,1.45
2023-03-06T05:14:55.492Z,1.50
2023-03-06T05:17:22.778Z,1.48
2023-03-06T05:19:50.347Z,1.77
2023-03-06T05:22:17.639Z,2.20
2023-03-06T05:24:45.228Z,1.92
2023-03-06T05:27:12.909Z,1.77
2023-03-06T05:29:41.393Z,2.55
2023-03-06T05:32:09.016Z,1.58
2023-03-06T05:34:36.574Z,2.50
2023-03-06T05:37:03.893Z,1.45
2023-03-06T05:39:31.507Z,1.23
2023-03-06T05:41:58.802Z,1.27
2023-03-06T05:44:31.189Z,1.35
2023-03-06T05:46:59.493Z,2.05
2023-03-06T05:49:27.684Z,1.92
2023-03-06T05:51:54.953Z,2.25
2023-03-06T05:54:24.389Z,1.65
2023-03-06T05:56:51.691Z,1.60
2023-03-06T05:59:19.330Z,1.88
2023-03-06T06:01:46.625Z,2.75
2023-03-06T06:04:14.184Z,2.10
2023-03-06T06:06:41.486Z,4.85
2023-03-06T06:09:11.688Z,1.67
2023-03-06T06:11:40.115Z,1.70
2023-03-06T06:14:08.034Z,1.73
2023-03-06T06:16:35.359Z,1.67
2023-03-06T06:19:03.055Z,1.65
2023-03-06T06:21:30.354Z,1.50
2023-03-06T06:23:57.934Z,1.70
2023-03-06T06:26:25.269Z,1.98
2023-03-06T06:28:52.839Z,1.20
2023-03-06T06:31:20.232Z,1.63
2023-03-06T06:33:47.892Z,1.95
2023-03-06T06:36:16.177Z,1.00
2023-03-06T06:38:43.917Z,2.03
2023-03-06T06:41:35.996Z,1.88
2023-03-06T06:43:59.309Z,2.78
2023-03-06T06:47:09.569Z,2.67
2023-03-06T06:49:15.501Z,2.47
2023-03-06T06:51:42.807Z,3.45
2023-03-06T06:54:11.679Z,2.15
2023-03-06T06:56:38.992Z,3.95
2023-03-06T06:59:16.235Z,2.08
2023-03-06T07:01:44.895Z,2.53
2023-03-06T07:04:13.649Z,2.72
2023-03-06T07:06:41.328Z,2.88
2023-03-06T07:09:08.931Z,2.08
2023-03-06T07:11:37.876Z,3.35
2023-03-06T07:14:05.513Z,2.20
2023-03-06T07:16:32.849Z,3.25
2023-03-06T07:19:00.452Z,2.22
2023-03-06T07:21:27.855Z,2.35
2023-03-06T07:23:57.332Z,2.30
2023-03-06T07:26:28.244Z,2.80
2023-03-06T07:28:55.945Z,2.13
2023-03-06T07:31:26.027Z,2.78
2023-03-06T07:33:54.539Z,2.60
2023-03-06T07:36:22.974Z,1.25
2023-03-06T07:38:50.743Z,1.48
2023-03-06T07:41:21.832Z,2.00
2023-03-06T07:43:50.295Z,1.80
2023-03-06T07:46:17.997Z,1.80
2023-03-06T07:48:45.640Z,1.35
2023-03-06T07:51:17.895Z,1.92
2023-03-06T07:53:45.584Z,2.75
2023-03-06T07:56:12.955Z,2.20
2023-03-06T07:58:41.500Z,2.30
2023-03-06T08:01:10.194Z,1.55
2023-03-06T08:03:37.866Z,1.80
2023-03-06T08:06:08.071Z,1.88
2023-03-06T08:08:36.371Z,2.40
2023-03-06T08:11:04.111Z,2.53
2023-03-06T08:13:31.770Z,1.20
2023-03-06T08:16:00.081Z,2.47
2023-03-06T08:18:28.348Z,1.90
2023-03-06T08:21:15.054Z,2.78
2023-03-06T08:23:42.943Z,2.13
2023-03-06T08:26:36.739Z,2.10
2023-03-06T08:29:04.362Z,1.55
2023-03-06T08:31:31.667Z,0.95
2023-03-06T08:34:00.676Z,1.80
2023-03-06T08:36:28.037Z,1.90
2023-03-06T08:38:55.786Z,1.90
2023-03-06T08:41:23.449Z,2.25
2023-03-06T08:43:51.501Z,1.67
2023-03-06T08:46:20.533Z,1.67
2023-03-06T08:48:48.356Z,1.40
2023-03-06T08:51:16.111Z,2.72
2023-03-06T08:53:44.537Z,1.98
2023-03-06T08:56:19.304Z,1.33
2023-03-06T08:58:47.450Z,1.75
2023-03-06T09:01:19.627Z,1.15
2023-03-06T09:03:47.264Z,1.67
2023-03-06T09:06:15.062Z,1.95
2023-03-06T09:08:44.350Z,2.30
2023-03-06T09:11:12.438Z,2.47
2023-03-06T09:13:40.453Z,2.67
2023-03-06T09:16:08.882Z,3.03
2023-03-06T09:18:36.938Z,1.33
2023-03-06T09:21:04.682Z,1.55
2023-03-06T09:23:32.353Z,1.60
2023-03-06T09:26:00.150Z,2.67
2023-03-06T09:28:27.969Z,1.35
2023-03-06T09:30:55.369Z,3.00
2023-03-06T09:33:23.299Z,1.42
2023-03-06T09:35:52.703Z,3.60
2023-03-06T09:38:21.470Z,1.05
2023-03-06T09:40:58.164Z,1.13
2023-03-06T09:43:31.502Z,1.30
2023-03-06T09:45:59.478Z,1.25
2023-03-06T09:48:34.854Z,0.80
2023-03-06T09:51:05.310Z,1.20
2023-03-06T09:53:51.663Z,1.15
2023-03-06T09:56:20.986Z,0.98
2023-03-06T09:58:53.645Z,1.17
2023-03-06T10:01:22.842Z,2.05
2023-03-06T10:03:56.766Z,1.65
2023-03-06T10:06:24.407Z,1.63
2023-03-06T10:09:07.147Z,1.67
2023-03-06T10:11:55.319Z,0.85
2023-03-06T10:14:29.165Z,1.73
2023-03-06T10:19:32.497Z,2.55
2023-03-06T10:22:16.675Z,2.03
2023-03-06T10:25:03.243Z,1.30
2023-03-06T10:27:49.046Z,2.67
2023-03-06T10:30:35.418Z,2.67
2023-03-06T10:33:14.596Z,2.17
2023-03-06T10:35:52.256Z,2.55
2023-03-06T10:38:46.037Z,1.55
2023-03-06T10:41:13.982Z,0.77
2023-03-06T10:43:42.519Z,1.08
2023-03-06T10:46:11.262Z,0.98
2023-03-06T10:48:41.699Z,1.10
2023-03-06T10:51:17.808Z,1.52
2023-03-06T10:53:59.389Z,1.98
2023-03-06T10:56:35.741Z,1.40
2023-03-06T10:59:08.974Z,0.70
2023-03-06T11:01:36.811Z,2.40
2023-03-06T11:04:17.646Z,0.95
2023-03-06T11:06:45.342Z,1.02
2023-03-06T11:09:22.855Z,1.63
2023-03-06T11:11:51.305Z,0.68
2023-03-06T11:14:23.093Z,0.98
2023-03-06T11:16:53.348Z,0.35
2023-03-06T11:19:28.794Z,1.00
2023-03-06T11:22:19.504Z,1.13
2023-03-06T11:24:48.880Z,1.20
2023-03-06T11:27:22.614Z,0.73
2023-03-06T11:32:17.567Z,2.40
2023-03-06T11:34:58.081Z,15.05
2023-03-06T11:37:30.895Z,1.13
2023-03-06T11:40:17.143Z,0.90
2023-03-06T11:42:50.816Z,0.50
2023-03-06T11:48:06.092Z,0.93
2023-03-06T11:50:39.443Z,1.42
2023-03-06T11:53:30.123Z,1.45
2023-03-06T11:56:18.756Z,2.47
2023-03-06T11:59:02.612Z,1.67
2023-03-06T12:04:31.052Z,1.25
2023-03-06T12:07:23.405Z,0.65
2023-03-06T12:09:57.168Z,6.80
2023-03-06T12:12:27.978Z,3.33
2023-03-06T12:15:13.286Z,2.05
2023-03-06T12:17:56.895Z,3.83
2023-03-06T12:20:33.129Z,2.88
2023-03-06T12:23:15.543Z,2.40
2023-03-06T12:25:47.308Z,2.08
2023-03-06T12:28:14.561Z,2.40
2023-03-06T12:31:02.392Z,3.10
2023-03-06T12:33:34.482Z,2.45
2023-03-06T12:36:20.866Z,3.00
2023-03-06T12:39:00.966Z,2.05
2023-03-06T12:41:40.662Z,1.15
2023-03-06T12:44:08.131Z,1.05
2023-03-06T12:46:47.202Z,1.83
2023-03-06T12:49:31.430Z,0.95
2023-03-06T12:52:00.128Z,2.03
2023-03-06T12:54:29.298Z,1.65
2023-03-06T12:56:58.267Z,1.13
2023-03-06T12:59:36.765Z,1.33
2023-03-06T13:02:10.502Z,1.48
2023-03-06T13:04:48.736Z,1.52
2023-03-06T13:07:22.912Z,1.17
2023-03-06T13:10:31.946Z,1.35
2023-03-06T13:13:01.580Z,1.70
2023-03-06T13:15:28.947Z,1.10
2023-03-06T13:17:57.301Z,1.23
2023-03-06T13:20:35.128Z,1.25
2023-03-06T13:23:21.545Z,1.58
2023-03-06T13:25:50.903Z,0.77
2023-03-06T13:28:25.267Z,1.02
2023-03-06T13:30:53.354Z,1.45
2023-03-06T13:33:31.381Z,1.98
2023-03-06T13:35:59.620Z,1.08
2023-03-06T13:38:42.728Z,1.17
2023-03-06T13:41:25.502Z,1.60
2023-03-06T13:43:56.818Z,1.05
2023-03-06T13:46:35.162Z,1.67
2023-03-06T13:49:09.426Z,1.17
2023-03-06T13:51:59.118Z,1.00
2023-03-06T13:54:29.518Z,0.88
2023-03-06T13:57:15.724Z,1.60
2023-03-06T14:00:11.683Z,1.08
2023-03-06T14:02:58.057Z,1.23
2023-03-06T14:05:26.192Z,1.27
2023-03-06T14:08:11.210Z,1.20
2023-03-06T14:10:39.260Z,1.05
2023-03-06T14:13:13.719Z,2.88
2023-03-06T14:15:42.013Z,3.25
2023-03-06T14:18:12.419Z,0.82
2023-03-06T14:20:40.046Z,1.02
2023-03-06T14:23:22.453Z,1.15
2023-03-06T14:25:54.722Z,1.80
2023-03-06T14:28:23.332Z,1.40
2023-03-06T14:30:52.227Z,1.25
2023-03-06T14:33:29.002Z,2.20
2023-03-06T14:35:58.396Z,4.25
2023-03-06T14:38:26.927Z,6.82
2023-03-06T14:40:54.558Z,3.60
2023-03-06T14:43:31.134Z,3.20
2023-03-06T14:46:03.356Z,2.72
2023-03-06T14:48:41.757Z,3.00
2023-03-06T14:51:17.549Z,2.75
2023-03-06T14:53:48.029Z,3.28
2023-03-06T14:56:19.891Z,2.75
2023-03-06T14:58:53.697Z,1.30
2023-03-06T15:01:33.607Z,1.67
2023-03-06T15:04:01.905Z,1.92
2023-03-06T15:06:37.834Z,3.25
2023-03-06T15:09:08.514Z,2.97
2023-03-06T15:11:55.301Z,2.78
2023-03-06T15:14:29.336Z,1.83
2023-03-06T15:16:56.966Z,1.60
2023-03-06T15:19:24.474Z,2.63
2023-03-06T15:21:52.744Z,2.25
2023-03-06T15:24:32.797Z,2.63
2023-03-06T15:27:04.992Z,4.32
2023-03-06T15:29:32.318Z,3.33
2023-03-06T15:32:16.898Z,3.03
2023-03-06T15:34:44.216Z,3.40
2023-03-06T15:37:27.569Z,2.40
2023-03-06T15:40:06.881Z,7.22
2023-03-06T15:42:35.599Z,4.82
2023-03-06T15:45:13.140Z,3.40
2023-03-06T15:47:41.053Z,3.30
2023-03-06T15:50:16.064Z,3.17
2023-03-06T15:52:44.185Z,3.95
2023-03-06T15:55:12.986Z,3.00
2023-03-06T15:57:51.354Z,5.05
2023-03-06T16:00:27.741Z,4.78
2023-03-06T16:02:56.709Z,3.38
2023-03-06T16:05:24.427Z,3.17
2023-03-06T16:07:52.076Z,4.10
2023-03-06T16:10:20.724Z,4.35
2023-03-06T16:12:49.394Z,4.72
2023-03-06T16:15:25.270Z,2.45
2023-03-06T16:17:53.063Z,2.80
2023-03-06T16:20:21.625Z,4.15
2023-03-06T16:22:50.028Z,10.38
2023-03-06T16:25:18.355Z,6.13
2023-03-06T16:27:59.510Z,15.32
2023-03-06T16:30:28.091Z,8.77
2023-03-06T16:32:55.871Z,9.00
2023-03-06T16:35:23.526Z,5.53
2023-03-06T16:37:51.486Z,4.60
2023-03-06T16:40:40.972Z,3.53
2023-03-06T16:43:09.776Z,3.25
2023-03-06T16:45:38.152Z,2.42
2023-03-06T16:48:06.285Z,3.80
2023-03-06T16:50:34.890Z,4.70
2023-03-06T16:53:02.733Z,4.68
2023-03-06T16:55:30.020Z,8.18
2023-03-06T16:57:57.613Z,8.20
2023-03-06T17:00:25.003Z,2.80
2023-03-06T17:02:52.985Z,3.13
2023-03-06T17:05:20.555Z,9.77
2023-03-06T17:07:48.216Z,13.75
2023-03-06T17:10:16.686Z,47.20
2023-03-06T17:12:44.759Z,33.75
2023-03-06T17:15:12.432Z,15.73
2023-03-06T17:17:40.129Z,19.92
2023-03-06T17:20:08.228Z,34.30
2023-03-06T17:22:36.502Z,19.27
2023-03-06T17:25:05.127Z,21.23
2023-03-06T17:27:33.280Z,40.30
2023-03-06T17:30:00.963Z,93.53
2023-03-06T17:32:29.092Z,50.25
2023-03-06T17:34:56.691Z,20.52
2023-03-06T17:37:24.391Z,17.10
2023-03-06T17:39:51.786Z,12.75
2023-03-06T17:42:19.377Z,9.88
2023-03-06T17:44:47.910Z,7.82
2023-03-06T17:47:15.592Z,21.10
2023-03-06T17:49:43.054Z,48.28
2023-03-06T17:52:10.808Z,25.95
2023-03-06T17:54:38.170Z,25.10
2023-03-06T17:57:06.264Z,16.90
2023-03-06T17:59:36.936Z,11.80
2023-03-06T18:02:06.368Z,12.65
2023-03-06T18:04:33.917Z,10.48
2023-03-06T18:07:01.526Z,12.02
2023-03-06T18:09:29.300Z,25.58
2023-03-06T18:11:57.114Z,31.08
2023-03-06T18:14:24.456Z,31.95
2023-03-06T18:16:52.286Z,15.52
2023-03-06T18:19:19.786Z,28.05
2023-03-06T18:21:47.756Z,22.05
2023-03-06T18:24:15.355Z,33.40
2023-03-06T18:26:43.434Z,33.55
2023-03-06T18:29:10.842Z,31.38
2023-03-06T18:31:41.402Z,28.77
2023-03-06T18:34:10.707Z,12.50
2023-03-06T18:36:38.638Z,14.25
2023-03-06T18:39:08.594Z,10.68
2023-03-06T18:41:36.576Z,24.20
2023-03-06T18:44:04.184Z,10.95
2023-03-06T18:46:36.614Z,11.43
2023-03-06T18:49:04.323Z,14.07
2023-03-06T18:51:32.208Z,28.83
2023-03-06T18:54:01.274Z,24.35
2023-03-06T18:56:29.350Z,25.35
2023-03-06T18:58:56.950Z,51.65
2023-03-06T19:01:25.465Z,60.15
2023-03-06T19:03:53.020Z,107.25
2023-03-06T19:06:20.784Z,124.95
2023-03-06T19:08:48.220Z,50.33
2023-03-06T19:11:16.551Z,29.60
2023-03-06T19:13:44.189Z,31.50
2023-03-06T19:16:19.113Z,27.17
2023-03-06T19:18:46.573Z,32.70
2023-03-06T19:21:17.324Z,33.83
2023-03-06T19:23:44.639Z,50.03
2023-03-06T19:26:12.244Z,45.30
2023-03-06T19:28:41.778Z,39.38
2023-03-06T19:31:11.082Z,33.00
2023-03-06T19:33:38.728Z,32.72
2023-03-06T19:36:07.615Z,35.95
2023-03-06T19:38:35.132Z,32.38
2023-03-06T19:41:03.068Z,27.58
2023-03-06T19:43:30.811Z,29.25
2023-03-06T19:46:00.573Z,24.13
2023-03-06T19:48:27.914Z,24.85
2023-03-06T19:50:55.651Z,24.90
2023-03-06T19:53:23.146Z,23.88
2023-03-06T19:55:50.709Z,23.52
2023-03-06T19:58:17.998Z,30.63
2023-03-06T20:00:45.571Z,32.78
2023-03-06T20:03:12.858Z,27.98
2023-03-06T20:05:46.195Z,24.10
2023-03-06T20:08:13.643Z,18.63
2023-03-06T20:10:41.209Z,17.90
2023-03-06T20:13:08.809Z,15.73
2023-03-06T20:15:36.997Z,15.10
2023-03-06T20:18:05.860Z,14.18
2023-03-06T20:20:33.512Z,16.27
2023-03-06T20:23:04.354Z,12.57
2023-03-06T20:25:32.038Z,15.80
2023-03-06T20:27:59.398Z,13.95
2023-03-06T20:30:36.673Z,20.35
2023-03-06T20:33:05.481Z,21.08
2023-03-06T20:35:33.213Z,25.52
2023-03-06T20:38:00.700Z,19.15
2023-03-06T20:40:28.611Z,19.30
2023-03-06T20:42:55.865Z,20.80
2023-03-06T20:45:23.407Z,24.83
2023-03-06T20:47:50.746Z,16.52
2023-03-06T20:50:18.277Z,26.23
2023-03-06T20:52:45.596Z,22.73
2023-03-06T20:55:13.174Z,23.17
2023-03-06T20:57:40.456Z,21.10
2023-03-06T21:00:08.699Z,18.23
2023-03-06T21:02:35.981Z,19.70
2023-03-06T21:05:03.893Z,18.35
2023-03-06T21:07:32.595Z,19.20
2023-03-06T21:10:00.205Z,18.70
2023-03-06T21:12:27.609Z,17.52
2023-03-06T21:14:55.222Z,13.32
2023-03-06T21:17:22.584Z,13.00
2023-03-06T21:19:50.802Z,13.57
2023-03-06T21:22:18.093Z,11.38
2023-03-06T21:24:45.693Z,12.85
2023-03-06T21:27:13.001Z,12.63
2023-03-06T21:29:40.601Z,13.25
2023-03-06T21:32:07.980Z,8.63
2023-03-06T21:34:35.572Z,7.13
2023-03-06T21:37:03.570Z,10.88
2023-03-06T21:39:31.125Z,11.98
2023-03-06T21:41:58.417Z,8.93
2023-03-06T21:44:26.030Z,6.57
2023-03-06T21:46:53.316Z,5.53
2023-03-06T21:49:25.869Z,6.28
2023-03-06T21:51:53.886Z,8.70
2023-03-06T21:54:21.678Z,7.72
2023-03-06T21:56:49.000Z,6.32
2023-03-06T21:59:16.560Z,5.43
2023-03-06T22:01:43.859Z,7.63
2023-03-06T22:04:11.516Z,10.48
2023-03-06T22:06:39.850Z,7.88
2023-03-06T22:09:07.594Z,6.22
2023-03-06T22:11:37.234Z,5.25
2023-03-06T22:14:05.721Z,5.50
2023-03-06T22:16:33.164Z,5.80
2023-03-06T22:19:00.974Z,6.35
2023-03-06T22:21:28.406Z,6.75
2023-03-06T22:24:00.279Z,5.63
2023-03-06T22:26:28.145Z,5.95
2023-03-06T22:28:56.171Z,6.30
2023-03-06T22:31:25.392Z,10.32
2023-03-06T22:33:53.919Z,9.50
2023-03-06T22:36:22.058Z,7.28
2023-03-06T22:38:49.804Z,5.68
2023-03-06T22:41:18.122Z,5.45
2023-03-06T22:43:45.704Z,6.75
2023-03-06T22:46:14.718Z,5.82
2023-03-06T22:48:42.745Z,6.75
2023-03-06T22:51:12.353Z,7.38
2023-03-06T22:53:40.741Z,7.07
2023-03-06T22:56:08.964Z,6.28
2023-03-06T22:58:37.333Z,5.97
2023-03-06T23:01:12.010Z,7.32
2023-03-06T23:03:40.745Z,6.75
2023-03-06T23:06:09.824Z,5.97
2023-03-06T23:08:37.587Z,6.97
2023-03-06T23:11:08.509Z,7.30
2023-03-06T23:13:36.753Z,6.30
2023-03-06T23:16:05.030Z,7.22
2023-03-06T23:18:32.936Z,8.00
2023-03-06T23:21:00.407Z,7.03
2023-03-06T23:23:28.068Z,7.75
2023-03-06T23:25:59.193Z,7.13
2023-03-06T23:28:27.279Z,6.13
2023-03-06T23:30:54.642Z,6.70
2023-03-06T23:33:22.608Z,6.18
2023-03-06T23:35:49.992Z,5.85
2023-03-06T23:38:17.578Z,3.92
2023-03-06T23:40:44.920Z,6.25
2023-03-06T23:43:12.508Z,4.53
2023-03-06T23:45:39.850Z,7.15
2023-03-06T23:48:08.001Z,3.05
2023-03-06T23:50:35.326Z,6.00
2023-03-06T23:53:03.421Z,7.15
2023-03-06T23:55:30.676Z,5.00
2023-03-06T23:57:58.251Z,7.57
